Time;durP1;ratioP1;P1;durP2;ratioP2;P2;SDS_P1;SDS_P2;PMS_P1;PMS_P2;Temp;Humidity;BMP_temperature;BMP_pressure;BME280_temperature;BME280_humidity;BME280_pressure;Samples;Min_cycle;Max_cycle;Signal;HPM_P1;HPM_P2
2023/10/17 00:01:21;;;;;;;2.63;0.90;;;8.00;99.90;;;;;;6148505;23;20144;-87
2023/10/17 00:03:48;;;;;;;0.83;0.83;;;8.00;99.90;;;;;;6148598;23;20226;-87
2023/10/17 00:06:17;;;;;;;1.77;1.17;;;7.90;99.90;;;;;;6147562;23;20758;-87
2023/10/17 00:08:44;;;;;;;2.97;1.30;;;7.90;99.90;;;;;;6147841;23;20259;-87
2023/10/17 00:11:15;;;;;;;7.83;1.53;;;7.90;99.90;;;;;;6123784;23;20227;-86
2023/10/17 00:14:00;;;;;;;1.97;1.33;;;7.90;99.90;;;;;;6125139;23;20573;-86
2023/10/17 00:16:30;;;;;;;0.50;0.50;;;7.90;99.90;;;;;;6148068;23;20151;-87
2023/10/17 00:18:57;;;;;;;0.70;0.70;;;7.90;99.90;;;;;;6148986;23;20604;-87
2023/10/17 00:21:23;;;;;;;1.30;1.27;;;8.00;99.90;;;;;;6147294;23;20225;-87
2023/10/17 00:23:52;;;;;;;3.17;1.40;;;8.00;99.90;;;;;;6123690;23;20199;-86
2023/10/17 00:26:22;;;;;;;0.90;0.90;;;8.00;99.90;;;;;;6147832;23;20195;-87
2023/10/17 00:28:49;;;;;;;1.57;1.47;;;8.00;99.90;;;;;;6123989;23;20525;-87
2023/10/17 00:31:14;;;;;;;1.17;0.40;;;8.10;99.90;;;;;;6149089;23;20168;-87
2023/10/17 00:33:41;;;;;;;0.77;0.77;;;8.10;99.90;;;;;;6123561;23;20195;-87
2023/10/17 00:36:14;;;;;;;0.60;0.60;;;8.00;99.90;;;;;;6123580;23;20293;-87
2023/10/17 00:38:43;;;;;;;0.60;0.60;;;8.00;99.90;;;;;;6124636;23;20310;-87
2023/10/17 00:41:18;;;;;;;0.93;0.93;;;8.10;99.90;;;;;;6123798;23;20206;-87
2023/10/17 00:43:44;;;;;;;1.23;0.90;;;8.10;99.90;;;;;;6147901;23;20190;-87
2023/10/17 00:46:09;;;;;;;1.53;1.43;;;8.10;99.90;;;;;;6148297;23;20167;-87
2023/10/17 00:48:37;;;;;;;3.57;1.37;;;8.10;99.90;;;;;;6123238;23;20647;-87
2023/10/17 00:51:08;;;;;;;1.57;1.37;;;8.20;99.90;;;;;;6123594;23;20191;-87
2023/10/17 00:53:40;;;;;;;0.90;0.90;;;8.30;99.90;;;;;;6147950;23;20196;-87
2023/10/17 00:56:07;;;;;;;0.50;0.50;;;8.30;99.90;;;;;;6147682;23;20231;-87
2023/10/17 00:58:34;;;;;;;2.00;0.80;;;8.20;99.90;;;;;;6148006;23;20597;-87
2023/10/17 01:03:42;;;;;;;4.67;1.07;;;8.10;99.90;;;;;;6148409;23;20194;-87
2023/10/17 01:08:54;;;;;;;7.77;1.80;;;7.90;99.90;;;;;;6150964;23;20195;-87
2023/10/17 01:11:21;;;;;;;1.63;1.53;;;7.80;99.90;;;;;;6125345;23;20536;-87
2023/10/17 01:13:49;;;;;;;1.43;1.00;;;7.70;99.90;;;;;;6149287;23;20206;-87
2023/10/17 01:16:18;;;;;;;1.37;1.27;;;7.70;99.90;;;;;;6150416;23;20187;-87
2023/10/17 01:18:45;;;;;;;2.00;1.37;;;7.60;99.90;;;;;;6125103;23;20659;-87
2023/10/17 01:21:12;;;;;;;1.20;1.10;;;7.60;99.90;;;;;;6150750;23;20191;-87
2023/10/17 01:23:38;;;;;;;1.27;0.93;;;7.50;99.90;;;;;;6149219;23;20195;-86
2023/10/17 01:26:09;;;;;;;1.83;1.73;;;7.40;99.90;;;;;;6149527;23;20197;-86
2023/10/17 01:28:37;;;;;;;1.90;1.43;;;7.30;99.90;;;;;;6149273;23;20159;-86
2023/10/17 01:31:03;;;;;;;1.27;1.17;;;7.30;99.90;;;;;;6125951;23;20156;-86
2023/10/17 01:33:29;;;;;;;1.20;1.00;;;7.20;99.90;;;;;;6149381;23;20195;-86
2023/10/17 01:36:00;;;;;;;14.87;1.10;;;7.20;99.90;;;;;;6124943;23;20298;-87
2023/10/17 01:38:26;;;;;;;0.90;0.83;;;7.20;99.90;;;;;;6125059;23;20202;-87
2023/10/17 01:40:55;;;;;;;1.50;0.90;;;7.20;99.90;;;;;;6124740;23;20248;-86
2023/10/17 01:43:21;;;;;;;0.67;0.67;;;7.10;99.90;;;;;;6148974;23;20306;-86
2023/10/17 01:45:48;;;;;;;0.50;0.50;;;7.00;99.90;;;;;;6124995;23;20208;-87
2023/10/17 01:48:14;;;;;;;1.87;1.30;;;6.90;99.90;;;;;;6125222;23;20636;-87
2023/10/17 01:50:39;;;;;;;1.60;1.50;;;6.90;99.90;;;;;;6149228;23;20734;-86
2023/10/17 01:53:12;;;;;;;3.77;1.40;;;6.80;99.90;;;;;;6124948;23;20187;-87
2023/10/17 01:55:45;;;;;;;0.90;0.90;;;6.80;99.90;;;;;;6125589;23;20182;-87
2023/10/17 01:58:15;;;;;;;0.90;0.90;;;6.80;99.90;;;;;;6126025;23;20151;-88
2023/10/17 02:00:42;;;;;;;1.27;1.20;;;6.80;99.90;;;;;;6124749;23;20191;-87
2023/10/17 02:03:12;;;;;;;0.93;0.93;;;6.80;99.90;;;;;;6150884;23;20258;-87
2023/10/17 02:05:38;;;;;;;2.07;1.20;;;6.80;99.90;;;;;;6125210;23;20288;-87
2023/10/17 02:08:08;;;;;;;1.43;1.33;;;6.80;99.90;;;;;;6148937;23;20225;-87
2023/10/17 02:10:34;;;;;;;3.63;1.37;;;6.80;99.90;;;;;;6126543;23;20295;-87
2023/10/17 02:13:00;;;;;;;1.27;1.17;;;6.80;99.90;;;;;;6125328;23;20180;-87
2023/10/17 02:15:26;;;;;;;1.03;0.80;;;6.90;99.90;;;;;;6123480;23;20241;-87
2023/10/17 02:17:53;;;;;;;1.40;0.93;;;6.90;99.90;;;;;;6124692;23;20206;-87
2023/10/17 02:20:29;;;;;;;1.47;1.47;;;7.00;99.90;;;;;;6148837;23;20195;-87
2023/10/17 02:23:06;;;;;;;0.47;0.47;;;7.00;99.90;;;;;;6126589;23;20199;-87
2023/10/17 02:25:34;;;;;;;2.60;1.97;;;7.10;99.90;;;;;;6148692;23;20148;-87
2023/10/17 02:28:00;;;;;;;5.87;2.17;;;7.10;99.90;;;;;;6149792;23;20556;-87
2023/10/17 02:30:26;;;;;;;1.03;1.03;;;7.10;99.90;;;;;;6148522;23;20766;-87
2023/10/17 02:32:53;;;;;;;0.87;0.87;;;7.00;99.90;;;;;;6124380;23;20195;-87
2023/10/17 02:35:21;;;;;;;1.33;1.27;;;6.90;99.90;;;;;;6124920;23;20648;-87
2023/10/17 02:37:47;;;;;;;1.03;0.50;;;6.70;99.90;;;;;;6124541;23;20195;-87
2023/10/17 02:40:20;;;;;;;0.67;0.53;;;6.60;99.90;;;;;;6149724;23;20163;-87
2023/10/17 02:42:49;;;;;;;2.10;1.67;;;6.40;99.90;;;;;;6125903;23;20246;-87
2023/10/17 02:45:24;;;;;;;1.27;1.27;;;6.30;99.90;;;;;;6148908;23;20793;-88
2023/10/17 02:47:54;;;;;;;0.43;0.43;;;6.30;99.90;;;;;;6150096;23;20735;-87
2023/10/17 02:52:57;;;;;;;0.60;0.60;;;6.20;99.90;;;;;;6150531;23;20644;-87
2023/10/17 02:55:27;;;;;;;0.73;0.73;;;6.20;99.90;;;;;;6124216;23;20660;-87
2023/10/17 02:57:54;;;;;;;0.73;0.73;;;6.20;99.90;;;;;;6126315;23;20163;-87
2023/10/17 03:00:22;;;;;;;0.53;0.53;;;6.10;99.90;;;;;;6148584;23;20531;-87
2023/10/17 03:02:56;;;;;;;1.00;1.00;;;6.00;99.90;;;;;;6148068;23;20195;-87
2023/10/17 03:05:24;;;;;;;1.10;0.97;;;5.90;99.90;;;;;;6125035;23;20656;-87
2023/10/17 03:07:51;;;;;;;0.93;0.93;;;6.00;99.90;;;;;;6125109;23;20215;-87
2023/10/17 03:10:22;;;;;;;1.37;1.27;;;6.00;99.90;;;;;;6124844;23;20171;-88
2023/10/17 03:12:55;;;;;;;1.30;0.90;;;6.00;99.90;;;;;;6148601;23;20179;-87
2023/10/17 03:15:29;;;;;;;0.67;0.67;;;6.00;99.90;;;;;;6148383;23;20261;-87
2023/10/17 03:18:00;;;;;;;1.03;1.03;;;6.10;99.90;;;;;;6124847;23;20195;-86
2023/10/17 03:20:36;;;;;;;0.83;0.83;;;6.10;99.90;;;;;;6148251;23;20195;-87
2023/10/17 03:23:08;;;;;;;1.37;1.27;;;6.10;99.90;;;;;;6148465;23;20202;-87
2023/10/17 03:25:37;;;;;;;2.03;1.30;;;6.20;99.90;;;;;;6124253;23;20163;-87
2023/10/17 03:28:13;;;;;;;1.40;1.27;;;6.20;99.90;;;;;;6125291;23;20160;-87
2023/10/17 03:30:40;;;;;;;0.83;0.83;;;6.30;99.90;;;;;;6148293;23;20309;-87
2023/10/17 03:33:08;;;;;;;0.80;0.80;;;6.20;99.90;;;;;;6148142;23;20305;-87
2023/10/17 03:35:46;;;;;;;1.23;1.13;;;6.20;99.90;;;;;;6123742;23;20521;-88
2023/10/17 03:38:14;;;;;;;0.47;0.47;;;6.20;99.90;;;;;;6148417;23;20640;-87
2023/10/17 03:40:53;;;;;;;0.60;0.60;;;6.20;99.90;;;;;;6124359;23;24930;-87
2023/10/17 03:43:21;;;;;;;1.13;1.13;;;6.30;99.90;;;;;;6127582;23;20633;-88
2023/10/17 03:45:58;;;;;;;0.97;0.93;;;6.40;99.90;;;;;;6124241;23;20202;-88
2023/10/17 03:48:28;;;;;;;0.33;0.33;;;6.50;99.90;;;;;;6125946;23;20644;-88
2023/10/17 03:53:30;;;;;;;0.50;0.50;;;6.60;99.90;;;;;;6149803;23;20532;-87
2023/10/17 03:56:04;;;;;;;1.00;1.00;;;6.60;99.90;;;;;;6148863;23;21061;-87
2023/10/17 04:00:58;;;;;;;2.60;1.87;;;6.70;99.90;;;;;;6148833;23;20167;-87
2023/10/17 04:03:25;;;;;;;1.10;1.00;;;6.80;99.90;;;;;;6148265;23;20590;-87
2023/10/17 04:06:18;;;;;;;0.40;0.40;;;6.80;99.90;;;;;;6123571;23;20539;-87
2023/10/17 04:08:48;;;;;;;2.30;2.00;;;6.90;99.90;;;;;;6149352;23;20206;-88
2023/10/17 04:13:50;;;;;;;1.73;1.20;;;7.00;99.90;;;;;;6148098;23;20199;-87
2023/10/17 04:16:21;;;;;;;1.20;1.20;;;7.00;99.90;;;;;;6124380;23;20214;-87
2023/10/17 04:18:48;;;;;;;1.70;1.60;;;7.00;99.90;;;;;;6124659;23;20171;-87
2023/10/17 04:21:18;;;;;;;0.87;0.87;;;7.00;99.90;;;;;;6148029;23;20722;-87
2023/10/17 04:23:45;;;;;;;0.70;0.70;;;7.10;99.90;;;;;;6123885;23;20202;-87
2023/10/17 04:26:26;;;;;;;1.00;1.00;;;7.10;99.90;;;;;;6148039;23;20195;-87
2023/10/17 04:28:54;;;;;;;1.33;1.23;;;7.10;99.90;;;;;;6126719;23;20191;-87
2023/10/17 04:31:28;;;;;;;1.23;0.80;;;7.20;99.90;;;;;;6148165;23;20223;-87
2023/10/17 04:34:06;;;;;;;0.90;0.90;;;7.20;99.90;;;;;;6125840;23;20159;-87
2023/10/17 04:36:37;;;;;;;2.03;1.23;;;7.30;99.90;;;;;;6149661;23;20259;-87
2023/10/17 04:44:25;;;;;;;1.33;0.97;;;7.30;99.90;;;;;;6149492;23;20659;-87
2023/10/17 04:49:36;;;;;;;1.97;1.27;;;7.30;99.90;;;;;;6150028;23;20243;-87
2023/10/17 04:52:09;;;;;;;2.23;1.87;;;7.40;99.90;;;;;;6126457;23;20153;-88
2023/10/17 04:57:04;;;;;;;3.37;1.33;;;7.30;99.90;;;;;;6125507;23;20636;-87
2023/10/17 05:07:34;;;;;;;1.47;1.37;;;7.60;99.90;;;;;;6150826;23;20143;-87
2023/10/17 06:18:52;;;;;;;2.37;0.87;;;7.80;99.90;;;;;;6149293;23;20218;-88
2023/10/17 06:21:19;;;;;;;2.10;1.90;;;7.80;99.90;;;;;;6124867;23;20207;-87
2023/10/17 06:34:45;;;;;;;1.80;1.10;;;7.70;99.90;;;;;;6128237;23;20207;-85
2023/10/17 06:37:19;;;;;;;1.27;1.17;;;7.80;99.90;;;;;;6125277;23;20159;-87
2023/10/17 06:39:46;;;;;;;1.20;1.10;;;7.80;99.90;;;;;;6149123;23;20206;-88
2023/10/17 06:42:27;;;;;;;1.03;0.80;;;7.80;99.90;;;;;;6148766;23;20648;-87
2023/10/17 06:45:18;;;;;;;1.70;1.60;;;7.90;99.90;;;;;;6148411;23;20230;-88
2023/10/17 06:47:42;;;;;;;2.10;1.63;;;7.90;99.90;;;;;;6147744;23;20195;-87
2023/10/17 06:53:27;;;;;;;1.43;1.33;;;8.00;99.90;;;;;;6148775;23;20171;-88
2023/10/17 06:55:29;;;;;;;1.00;0.90;;;8.00;99.90;;;;;;6143956;23;20194;-89
2023/10/17 06:58:08;;;;;;;1.23;1.13;;;8.20;99.90;;;;;;6126447;23;20163;-88
2023/10/17 07:00:51;;;;;;;1.80;1.70;;;8.30;99.90;;;;;;6148298;23;20199;-88
2023/10/17 07:03:24;;;;;;;2.47;1.00;;;8.40;99.90;;;;;;6148516;23;20203;-87
2023/10/17 07:05:51;;;;;;;1.20;1.20;;;8.50;99.90;;;;;;6147333;23;20207;-88
2023/10/17 07:08:21;;;;;;;2.17;1.50;;;8.50;99.90;;;;;;6148411;23;20195;-88
2023/10/17 07:10:59;;;;;;;0.83;0.60;;;8.50;99.90;;;;;;6124252;23;20191;-88
2023/10/17 07:14:47;;;;;;;1.10;1.00;;;8.50;99.90;;;;;;6148825;23;20148;-88
2023/10/17 07:16:48;;;;;;;0.70;0.70;;;8.60;99.90;;;;;;6144104;23;20192;-88
2023/10/17 07:24:33;;;;;;;0.97;0.97;;;9.00;99.90;;;;;;6149265;23;20199;-88
2023/10/17 07:27:01;;;;;;;1.37;1.27;;;9.10;99.90;;;;;;6147776;23;20203;-87
2023/10/17 07:29:33;;;;;;;1.13;1.10;;;9.00;99.90;;;;;;6148284;23;20214;-88
2023/10/17 07:32:01;;;;;;;1.67;1.57;;;9.20;99.90;;;;;;6147959;23;20624;-88
2023/10/17 07:34:36;;;;;;;1.80;1.70;;;9.90;99.90;;;;;;6110955;23;20195;-87
2023/10/17 07:37:22;;;;;;;3.43;1.27;;;10.70;99.90;;;;;;6104025;23;20581;-87
2023/10/17 07:42:40;;;;;;;1.40;1.10;;;12.10;99.90;;;;;;6127606;23;20647;-88
2023/10/17 07:45:13;;;;;;;1.83;1.33;;;12.60;99.90;;;;;;6148210;23;20210;-88
2023/10/17 07:47:41;;;;;;;2.47;2.27;;;13.80;99.90;;;;;;6124970;23;20199;-88
2023/10/17 07:50:14;;;;;;;1.40;1.33;;;14.60;99.90;;;;;;6147591;23;20195;-88
2023/10/17 07:52:43;;;;;;;4.50;1.80;;;15.70;99.90;;;;;;6147983;23;20147;-91
2023/10/17 07:55:18;;;;;;;2.53;1.70;;;16.20;99.90;;;;;;6124347;23;20188;-86
2023/10/17 07:57:46;;;;;;;0.90;0.90;;;16.80;99.90;;;;;;6148206;23;20510;-88
2023/10/17 08:03:19;;;;;;;3.73;1.17;;;16.90;99.90;;;;;;6149335;23;20594;-88
2023/10/17 08:05:54;;;;;;;3.60;1.07;;;17.80;99.90;;;;;;6147757;23;20211;-88
2023/10/17 08:08:23;;;;;;;1.07;0.93;;;18.00;99.90;;;;;;6148056;23;20729;-88
2023/10/17 08:10:49;;;;;;;5.17;1.00;;;17.60;99.90;;;;;;6123771;23;20195;-89
2023/10/17 08:13:15;;;;;;;3.27;1.43;;;18.10;99.90;;;;;;6124563;23;20174;-89
2023/10/17 08:15:52;;;;;;;5.10;1.00;;;18.40;99.90;;;;;;6125985;23;20214;-90
2023/10/17 08:18:22;;;;;;;4.17;1.10;;;17.80;99.90;;;;;;6127985;23;20199;-90
2023/10/17 08:23:27;;;;;;;2.83;1.40;;;18.20;99.90;;;;;;6151373;23;20263;-89
2023/10/17 08:26:00;;;;;;;4.03;1.03;;;18.90;99.90;;;;;;6150533;23;20195;-91
2023/10/17 08:28:34;;;;;;;2.33;0.93;;;18.50;99.90;;;;;;6150517;23;20234;-89
2023/10/17 08:37:07;;;;;;;1.43;1.07;;;15.50;99.90;;;;;;6149861;23;20518;-88
2023/10/17 08:42:05;;;;;;;1.40;0.93;;;14.80;99.90;;;;;;6124884;23;20195;-88
2023/10/17 08:44:35;;;;;;;2.20;1.00;;;14.30;99.90;;;;;;6149172;23;20278;-88
2023/10/17 08:47:01;;;;;;;0.87;0.87;;;14.20;99.90;;;;;;6149124;23;20210;-88
2023/10/17 08:49:28;;;;;;;0.60;0.60;;;13.80;99.90;;;;;;6149288;23;20167;-88
2023/10/17 08:51:56;;;;;;;0.50;0.50;;;13.60;99.90;;;;;;6149126;23;20186;-88
2023/10/17 08:54:24;;;;;;;0.83;0.83;;;13.10;99.90;;;;;;6148788;23;20199;-88
2023/10/17 08:56:50;;;;;;;1.90;1.03;;;12.90;99.90;;;;;;6148985;23;20663;-88
2023/10/17 08:59:29;;;;;;;0.70;0.50;;;13.10;99.90;;;;;;6148195;23;20230;-88
2023/10/17 09:02:03;;;;;;;0.90;0.90;;;13.20;99.90;;;;;;6127709;23;20655;-88
2023/10/17 09:04:33;;;;;;;0.90;0.90;;;13.20;99.90;;;;;;6150496;23;20181;-88
2023/10/17 09:07:04;;;;;;;1.07;0.70;;;13.00;99.90;;;;;;6123386;23;20178;-88
2023/10/17 09:09:33;;;;;;;0.50;0.50;;;12.90;99.90;;;;;;6147060;23;20195;-88
2023/10/17 09:14:48;;;;;;;0.60;0.40;;;12.50;99.90;;;;;;6146386;23;20290;-88
2023/10/17 09:19:51;;;;;;;1.10;0.50;;;12.40;99.90;;;;;;6148684;23;20823;-86
2023/10/17 09:22:36;;;;;;;0.27;0.27;;;12.40;99.90;;;;;;6148531;23;20600;-87
2023/10/17 09:25:19;;;;;;;0.37;0.37;;;12.40;99.90;;;;;;6147975;23;20179;-87
2023/10/17 09:27:49;;;;;;;0.30;0.30;;;12.40;99.90;;;;;;6149016;23;20241;-87
2023/10/17 09:30:17;;;;;;;0.33;0.33;;;12.40;99.90;;;;;;6123404;23;20203;-87
2023/10/17 09:32:44;;;;;;;0.93;0.50;;;12.40;99.90;;;;;;6123103;23;20231;-87
2023/10/17 09:35:14;;;;;;;5.10;0.50;;;12.40;99.90;;;;;;6147381;23;20241;-88
2023/10/17 09:37:42;;;;;;;0.60;0.43;;;12.20;99.90;;;;;;6123621;23;20959;-88
2023/10/17 09:40:12;;;;;;;0.83;0.60;;;12.30;99.90;;;;;;6148074;23;20248;-87
2023/10/17 09:42:40;;;;;;;0.40;0.40;;;12.40;99.90;;;;;;6124102;23;20644;-87
2023/10/17 09:45:09;;;;;;;0.93;0.73;;;12.40;99.90;;;;;;6147543;23;20195;-87
2023/10/17 09:47:39;;;;;;;0.60;0.60;;;12.30;99.90;;;;;;6147147;23;20202;-88
2023/10/17 09:50:10;;;;;;;0.63;0.60;;;12.40;99.90;;;;;;6147493;23;20194;-87
2023/10/17 09:52:37;;;;;;;0.30;0.30;;;12.40;99.90;;;;;;6147410;23;20171;-86
2023/10/17 09:55:04;;;;;;;0.40;0.40;;;12.40;99.90;;;;;;6147147;23;20180;-86
2023/10/17 09:57:32;;;;;;;0.63;0.63;;;12.60;99.90;;;;;;6122740;23;20195;-87
2023/10/17 10:00:38;;;;;;;2.70;0.50;;;12.60;99.90;;;;;;6148563;23;20206;-88
2023/10/17 10:03:06;;;;;;;0.60;0.60;;;12.50;99.90;;;;;;6148640;23;20205;-87
2023/10/17 10:05:32;;;;;;;1.43;0.80;;;12.60;99.90;;;;;;6075458;23;1129571;-87
2023/10/17 10:08:27;;;;;;;0.83;0.70;;;12.80;99.90;;;;;;6149100;23;20540;-88
2023/10/17 10:10:53;;;;;;;0.40;0.40;;;12.80;99.90;;;;;;6148802;23;20640;-88
2023/10/17 10:13:20;;;;;;;2.27;0.70;;;12.80;99.90;;;;;;6125313;23;20166;-87
2023/10/17 10:16:01;;;;;;;0.93;0.80;;;12.90;99.90;;;;;;6149444;23;20675;-87
2023/10/17 10:18:36;;;;;;;0.50;0.47;;;12.90;99.90;;;;;;6125154;23;20234;-87
2023/10/17 10:21:07;;;;;;;0.73;0.60;;;13.00;99.90;;;;;;6149904;23;20683;-86
2023/10/17 10:23:34;;;;;;;2.83;0.93;;;13.10;99.90;;;;;;6124951;23;20195;-87
2023/10/17 10:26:12;;;;;;;2.10;0.50;;;13.60;99.90;;;;;;6124368;23;20539;-88
2023/10/17 10:28:38;;;;;;;0.50;0.40;;;14.10;99.90;;;;;;6149217;23;20632;-88
2023/10/17 10:31:23;;;;;;;0.43;0.43;;;14.70;99.90;;;;;;6149726;23;20206;-87
2023/10/17 10:33:54;;;;;;;5.93;2.73;;;15.10;99.90;;;;;;6150628;23;20270;-88
2023/10/17 10:36:22;;;;;;;0.70;0.70;;;14.60;99.90;;;;;;6148779;23;20199;-88
2023/10/17 10:38:47;;;;;;;1.70;0.50;;;14.70;99.90;;;;;;6148595;23;20262;-89
2023/10/17 10:41:15;;;;;;;0.83;0.70;;;14.70;99.90;;;;;;6124129;23;20196;-87
2023/10/17 10:43:44;;;;;;;0.80;0.43;;;14.20;99.90;;;;;;6124619;23;20199;-88
2023/10/17 10:46:14;;;;;;;0.77;0.50;;;14.40;99.90;;;;;;6149151;23;20163;-88
2023/10/17 10:48:48;;;;;;;0.40;0.40;;;14.80;99.90;;;;;;6148223;23;20203;-88
2023/10/17 10:51:17;;;;;;;0.77;0.60;;;14.70;99.90;;;;;;6150206;23;20199;-88
2023/10/17 10:53:54;;;;;;;0.40;0.40;;;14.80;99.90;;;;;;6148993;23;20195;-89
2023/10/17 10:56:25;;;;;;;0.80;0.77;;;14.90;99.90;;;;;;6148885;23;20462;-87
2023/10/17 10:58:55;;;;;;;0.30;0.30;;;14.60;99.90;;;;;;6150034;23;20202;-88
2023/10/17 11:01:22;;;;;;;0.53;0.53;;;14.90;99.90;;;;;;6124469;23;20243;-88
2023/10/17 11:03:50;;;;;;;0.77;0.40;;;15.50;99.90;;;;;;6124955;23;20608;-87
2023/10/17 11:06:24;;;;;;;0.47;0.30;;;15.70;99.90;;;;;;6112323;23;20214;-88
2023/10/17 11:08:51;;;;;;;0.73;0.50;;;15.60;99.90;;;;;;6123462;23;20206;-88
2023/10/17 11:11:19;;;;;;;2.27;0.60;;;15.90;99.90;;;;;;6148343;23;20672;-88
2023/10/17 11:13:47;;;;;;;2.10;0.50;;;15.50;99.90;;;;;;6146320;23;20206;-88
2023/10/17 11:16:24;;;;;;;0.40;0.40;;;15.20;99.90;;;;;;6147631;23;20234;-87
2023/10/17 11:18:50;;;;;;;0.87;0.57;;;15.10;99.90;;;;;;6147971;23;20707;-88
2023/10/17 11:21:21;;;;;;;1.63;0.80;;;15.70;99.90;;;;;;6121998;23;20514;-89
2023/10/17 11:24:04;;;;;;;0.70;0.70;;;15.80;99.90;;;;;;6146974;23;20282;-89
2023/10/17 11:26:34;;;;;;;0.73;0.60;;;15.80;99.90;;;;;;6148292;23;20203;-89
2023/10/17 11:29:03;;;;;;;0.73;0.57;;;15.30;99.90;;;;;;6148619;23;20586;-88
2023/10/17 11:31:31;;;;;;;0.70;0.70;;;14.90;99.90;;;;;;6146926;23;20164;-89
2023/10/17 11:34:04;;;;;;;0.60;0.60;;;14.80;99.90;;;;;;6147311;23;20636;-89
2023/10/17 11:36:45;;;;;;;1.23;0.77;;;14.90;99.90;;;;;;6147628;23;20262;-89
2023/10/17 11:39:15;;;;;;;2.40;0.87;;;14.70;99.90;;;;;;6147312;23;20199;-89
2023/10/17 11:41:49;;;;;;;1.13;0.70;;;14.80;99.90;;;;;;6147842;23;20195;-88
2023/10/17 11:44:15;;;;;;;0.40;0.40;;;14.70;99.90;;;;;;6123954;23;20221;-88
2023/10/17 11:46:55;;;;;;;0.60;0.60;;;14.20;99.90;;;;;;6148682;23;20230;-88
2023/10/17 11:49:27;;;;;;;0.97;0.73;;;14.10;99.90;;;;;;6148204;23;20152;-89
2023/10/17 11:52:00;;;;;;;1.50;0.73;;;14.20;99.90;;;;;;6124957;23;20333;-89
2023/10/17 11:54:26;;;;;;;1.30;0.80;;;14.30;99.90;;;;;;6147799;23;20202;-89
2023/10/17 11:56:54;;;;;;;0.60;0.60;;;14.10;99.90;;;;;;6123489;23;20202;-90
2023/10/17 11:59:21;;;;;;;1.90;0.80;;;13.80;99.90;;;;;;6148643;23;20270;-89
2023/10/17 12:01:52;;;;;;;0.73;0.73;;;13.90;99.90;;;;;;6124459;23;20195;-90
2023/10/17 12:04:18;;;;;;;2.77;0.90;;;13.80;99.90;;;;;;6149877;23;20479;-90
2023/10/17 12:06:47;;;;;;;0.73;0.73;;;13.80;99.90;;;;;;6123804;23;20214;-91
2023/10/17 12:09:22;;;;;;;1.27;0.97;;;14.00;99.90;;;;;;6148428;23;20203;-92
2023/10/17 12:11:53;;;;;;;0.60;0.60;;;13.90;99.90;;;;;;6125831;23;20207;-91
2023/10/17 12:14:20;;;;;;;0.63;0.63;;;13.90;99.90;;;;;;6148599;23;20245;-91
2023/10/17 12:16:58;;;;;;;1.00;0.87;;;13.70;99.90;;;;;;6148490;23;20860;-92
2023/10/17 12:19:26;;;;;;;2.50;0.90;;;13.80;99.90;;;;;;6148689;23;20194;-91
2023/10/17 12:21:53;;;;;;;0.57;0.57;;;13.70;99.90;;;;;;6149437;23;20151;-91
2023/10/17 12:24:28;;;;;;;0.50;0.50;;;13.70;99.90;;;;;;6149359;23;20210;-94
2023/10/17 12:26:56;;;;;;;1.00;0.90;;;13.80;99.90;;;;;;6129782;23;20202;-89
2023/10/17 12:29:29;;;;;;;0.80;0.70;;;13.80;99.90;;;;;;6130035;23;20206;-94
2023/10/17 12:31:57;;;;;;;2.17;1.17;;;13.70;99.90;;;;;;6133820;23;20200;-89
2023/10/17 12:34:27;;;;;;;1.87;1.03;;;13.80;99.90;;;;;;6137991;23;20502;-90
2023/10/17 12:36:53;;;;;;;1.33;0.50;;;13.80;99.90;;;;;;6163575;23;20160;-96
2023/10/17 12:39:19;;;;;;;4.10;0.90;;;13.70;99.90;;;;;;6127559;23;20202;-93
2023/10/17 12:41:49;;;;;;;0.60;0.60;;;13.70;99.90;;;;;;6131904;23;20222;-92
2023/10/17 12:44:18;;;;;;;1.97;1.13;;;13.60;99.90;;;;;;6159178;23;20214;-92
2023/10/17 12:46:46;;;;;;;2.57;1.03;;;13.70;99.90;;;;;;6158058;23;20218;-95
2023/10/17 12:49:12;;;;;;;0.90;0.83;;;13.70;99.90;;;;;;6133655;23;20167;-95
2023/10/17 12:51:41;;;;;;;4.73;0.97;;;13.60;99.90;;;;;;6161720;23;20260;-92
2023/10/17 12:54:19;;;;;;;0.40;0.40;;;13.60;99.90;;;;;;6160296;23;20195;-92
2023/10/17 12:56:45;;;;;;;0.90;0.87;;;13.50;99.90;;;;;;6162480;23;20206;-95
2023/10/17 12:59:14;;;;;;;0.43;0.43;;;13.50;99.90;;;;;;6150811;23;20206;-92
2023/10/17 13:01:40;;;;;;;0.57;0.57;;;13.50;99.90;;;;;;6131710;23;20194;-93
2023/10/17 13:04:07;;;;;;;0.70;0.70;;;13.30;99.90;;;;;;6155802;23;20217;-93
2023/10/17 13:06:34;;;;;;;0.40;0.40;;;13.40;99.90;;;;;;6155356;23;20218;-91
2023/10/17 13:09:00;;;;;;;3.50;0.60;;;13.50;99.90;;;;;;6154958;23;20210;-89
2023/10/17 13:11:30;;;;;;;0.77;0.70;;;13.50;99.90;;;;;;6158985;23;20195;-92
2023/10/17 13:14:00;;;;;;;3.40;0.93;;;13.40;99.90;;;;;;6169915;23;20258;-93
2023/10/17 13:16:32;;;;;;;1.60;1.60;;;13.50;99.90;;;;;;6169275;23;20312;-91
2023/10/17 13:19:06;;;;;;;0.80;0.80;;;13.50;99.90;;;;;;6145383;23;20171;-94
2023/10/17 13:21:39;;;;;;;0.60;0.60;;;13.60;99.90;;;;;;6131802;23;20204;-92
2023/10/17 13:24:09;;;;;;;0.30;0.30;;;13.60;99.90;;;;;;6132483;23;20462;-94
2023/10/17 13:26:37;;;;;;;0.60;0.60;;;13.70;99.90;;;;;;6126076;23;20263;-94
2023/10/17 13:29:06;;;;;;;0.63;0.57;;;13.70;99.90;;;;;;6123008;23;20346;-94
2023/10/17 13:31:33;;;;;;;0.97;0.50;;;13.50;99.90;;;;;;6123729;23;20171;-95
2023/10/17 13:33:59;;;;;;;0.87;0.40;;;13.50;99.90;;;;;;6125569;23;20164;-94
2023/10/17 13:36:25;;;;;;;0.60;0.60;;;13.50;99.90;;;;;;6102477;23;20753;-93
2023/10/17 13:38:51;;;;;;;0.50;0.50;;;13.40;99.90;;;;;;6125206;23;20204;-94
2023/10/17 13:41:16;;;;;;;1.97;0.70;;;13.30;99.90;;;;;;6100208;23;20590;-93
2023/10/17 13:44:01;;;;;;;1.93;0.70;;;13.40;99.90;;;;;;6129229;23;20203;-92
2023/10/17 13:46:32;;;;;;;0.77;0.50;;;13.40;99.90;;;;;;6131306;23;20253;-91
2023/10/17 13:48:58;;;;;;;0.57;0.50;;;13.30;99.90;;;;;;6125915;23;20168;-91
2023/10/17 13:51:34;;;;;;;0.50;0.40;;;13.30;99.90;;;;;;6122873;23;20488;-93
2023/10/17 13:54:00;;;;;;;0.23;0.23;;;13.20;99.90;;;;;;6152352;23;20210;-92
2023/10/17 13:56:33;;;;;;;1.30;0.60;;;13.20;99.90;;;;;;6125603;23;20631;-96
2023/10/17 13:59:03;;;;;;;3.10;0.63;;;13.20;99.90;;;;;;6101140;23;20199;-92
2023/10/17 14:01:41;;;;;;;2.63;0.83;;;13.20;99.90;;;;;;6106635;23;20160;-95
2023/10/17 14:04:09;;;;;;;1.20;0.63;;;13.00;99.90;;;;;;6133895;23;20182;-92
2023/10/17 14:06:42;;;;;;;0.60;0.60;;;13.00;99.90;;;;;;6127509;23;20211;-90
2023/10/17 14:09:23;;;;;;;0.53;0.33;;;13.00;99.90;;;;;;6118606;23;20219;-92
2023/10/17 14:11:51;;;;;;;0.33;0.33;;;13.00;99.90;;;;;;6154642;23;20521;-94
2023/10/17 14:14:18;;;;;;;1.03;0.93;;;12.90;99.90;;;;;;6102653;23;20199;-92
2023/10/17 14:16:50;;;;;;;2.53;0.87;;;12.90;99.90;;;;;;6124728;23;20210;-93
2023/10/17 14:19:28;;;;;;;0.80;0.57;;;12.90;99.90;;;;;;6122950;23;20239;-93
2023/10/17 14:22:20;;;;;;;3.63;0.80;;;12.90;99.90;;;;;;6124879;23;20228;-95
2023/10/17 14:27:24;;;;;;;1.23;1.10;;;12.80;99.90;;;;;;6133988;23;20191;-92
2023/10/17 14:29:52;;;;;;;0.67;0.57;;;12.80;99.90;;;;;;6122084;23;20290;-94
2023/10/17 14:32:20;;;;;;;0.60;0.50;;;12.90;99.90;;;;;;6130023;23;20204;-94
2023/10/17 14:34:48;;;;;;;1.07;0.70;;;12.80;99.90;;;;;;6124392;23;20242;-92
2023/10/17 14:37:14;;;;;;;0.60;0.60;;;12.90;99.90;;;;;;6130124;23;20160;-94
2023/10/17 14:39:41;;;;;;;1.00;0.90;;;12.90;99.90;;;;;;6128575;23;20196;-93
2023/10/17 14:42:10;;;;;;;1.80;1.70;;;12.90;99.90;;;;;;6129584;23;20266;-88
2023/10/17 14:44:45;;;;;;;0.77;0.70;;;12.90;99.90;;;;;;6130184;23;20207;-94
2023/10/17 14:47:19;;;;;;;1.03;0.57;;;13.00;99.90;;;;;;6129051;23;20195;-93
2023/10/17 14:49:47;;;;;;;5.60;1.17;;;13.00;99.90;;;;;;6127385;23;20653;-96
2023/10/17 14:52:16;;;;;;;2.00;1.10;;;13.00;99.90;;;;;;6133950;23;20219;-94
2023/10/17 14:54:48;;;;;;;0.63;0.43;;;12.90;99.90;;;;;;6123135;23;20199;-95
2023/10/17 14:57:17;;;;;;;0.60;0.60;;;13.00;99.90;;;;;;6135832;23;20199;-95
2023/10/17 14:59:52;;;;;;;4.07;1.37;;;12.90;99.90;;;;;;6133385;23;20290;-92
2023/10/17 15:02:19;;;;;;;0.97;0.73;;;12.80;99.90;;;;;;6092399;23;20221;-94
2023/10/17 15:04:51;;;;;;;2.43;1.03;;;12.90;99.90;;;;;;6134012;23;20199;-94
2023/10/17 15:07:19;;;;;;;0.70;0.70;;;12.90;99.90;;;;;;6134259;23;20160;-93
2023/10/17 15:09:47;;;;;;;2.37;0.90;;;12.90;99.90;;;;;;6116248;23;20199;-92
2023/10/17 15:12:15;;;;;;;0.90;0.73;;;13.20;99.90;;;;;;6130321;23;20247;-93
2023/10/17 15:14:42;;;;;;;0.87;0.87;;;13.40;99.90;;;;;;6135115;23;20215;-94
2023/10/17 15:17:13;;;;;;;1.10;0.90;;;13.40;99.90;;;;;;6140821;23;20196;-93
2023/10/17 15:19:40;;;;;;;1.00;0.83;;;13.30;99.90;;;;;;6129375;23;20156;-91
2023/10/17 15:22:17;;;;;;;0.63;0.63;;;13.10;99.90;;;;;;6132831;23;20184;-91
2023/10/17 15:24:48;;;;;;;0.70;0.70;;;12.90;99.90;;;;;;6154624;23;20286;-94
2023/10/17 15:27:14;;;;;;;0.53;0.53;;;12.80;99.90;;;;;;6122074;23;20200;-93
2023/10/17 15:29:40;;;;;;;1.20;1.10;;;12.80;99.90;;;;;;6101882;23;20226;-94
2023/10/17 15:32:06;;;;;;;2.90;0.93;;;12.50;99.90;;;;;;6096843;23;20203;-94
2023/10/17 15:34:32;;;;;;;1.07;0.90;;;12.30;99.90;;;;;;6120774;23;20167;-94